Time;durP1;ratioP1;P1;durP2;ratioP2;P2;SDS_P1;SDS_P2;PMS_P1;PMS_P2;Temp;Humidity;BMP_temperature;BMP_pressure;BME280_temperature;BME280_humidity;BME280_pressure;Samples;Min_cycle;Max_cycle;Signal;HPM_P1;HPM_P2
2022/05/29 00:02:07;;;;;;;3.13;0.50;;;10.90;78.40;;;;;;5043393;28;20033;-62
2022/05/29 00:04:33;;;;;;;1.88;0.50;;;10.90;78.60;;;;;;5032062;28;20088;-62
2022/05/29 00:06:59;;;;;;;2.55;0.50;;;10.90;78.70;;;;;;5035265;28;20025;-62
2022/05/29 00:09:40;;;;;;;3.83;0.40;;;10.90;78.80;;;;;;5035249;28;20032;-62
2022/05/29 00:12:07;;;;;;;3.80;0.50;;;11.00;78.90;;;;;;5042457;28;20025;-62
2022/05/29 00:14:35;;;;;;;3.17;0.40;;;11.00;79.00;;;;;;5038624;28;20025;-62
2022/05/29 00:17:01;;;;;;;4.82;0.50;;;11.00;79.10;;;;;;5040439;28;20218;-62
2022/05/29 00:19:26;;;;;;;2.15;0.40;;;10.90;79.20;;;;;;5042802;28;20028;-62
2022/05/29 00:21:54;;;;;;;3.42;0.50;;;10.90;79.20;;;;;;5038530;28;20393;-62
2022/05/29 00:24:19;;;;;;;5.25;0.70;;;11.00;79.30;;;;;;5038643;28;20511;-62
2022/05/29 00:26:45;;;;;;;2.47;0.63;;;11.00;79.40;;;;;;5038347;28;20029;-62
2022/05/29 00:29:10;;;;;;;4.13;0.60;;;11.00;79.40;;;;;;5034114;28;20033;-62
2022/05/29 00:31:36;;;;;;;3.63;0.65;;;11.00;79.50;;;;;;5039072;28;20029;-62
2022/05/29 00:34:02;;;;;;;1.83;1.05;;;11.00;79.60;;;;;;5040711;28;20423;-62
2022/05/29 00:36:33;;;;;;;3.97;0.68;;;11.00;79.80;;;;;;5044270;28;20053;-62
2022/05/29 00:38:58;;;;;;;2.45;0.60;;;11.00;80.00;;;;;;5033879;28;20033;-62
2022/05/29 00:41:29;;;;;;;3.30;0.85;;;11.00;80.10;;;;;;5037545;28;20086;-62
2022/05/29 00:44:18;;;;;;;2.08;0.70;;;11.00;80.30;;;;;;5050169;28;20017;-62
2022/05/29 00:46:50;;;;;;;2.47;0.80;;;11.00;80.40;;;;;;5033149;28;20021;-62
2022/05/29 00:49:17;;;;;;;5.05;0.95;;;10.90;80.60;;;;;;5036033;28;20029;-62
2022/05/29 00:51:53;;;;;;;2.90;1.38;;;10.90;80.90;;;;;;5036133;28;20061;-62
2022/05/29 00:54:18;;;;;;;4.35;1.00;;;11.00;81.00;;;;;;5034069;28;20033;-62
2022/05/29 00:56:45;;;;;;;2.25;0.80;;;10.90;81.10;;;;;;5043602;28;20033;-62
2022/05/29 00:59:16;;;;;;;4.35;0.90;;;10.90;81.50;;;;;;5044771;28;20503;-62
2022/05/29 01:01:42;;;;;;;2.85;0.80;;;10.90;81.70;;;;;;5035279;28;20029;-62
2022/05/29 01:04:09;;;;;;;2.50;0.70;;;10.90;81.80;;;;;;5040860;28;20025;-62
2022/05/29 01:06:35;;;;;;;2.95;0.73;;;10.90;82.00;;;;;;5037465;28;20017;-62
2022/05/29 01:09:02;;;;;;;2.22;0.63;;;10.90;82.10;;;;;;5031337;28;20029;-63
2022/05/29 01:11:43;;;;;;;1.17;0.55;;;10.90;82.30;;;;;;5036514;28;20404;-63
2022/05/29 01:14:27;;;;;;;4.50;1.00;;;10.90;82.40;;;;;;5035087;28;20489;-63
2022/05/29 01:17:02;;;;;;;5.20;1.00;;;10.90;82.70;;;;;;5036302;28;20037;-63
2022/05/29 01:19:55;;;;;;;3.63;0.82;;;10.90;83.00;;;;;;5034752;28;20048;-63
2022/05/29 01:22:39;;;;;;;3.88;0.88;;;10.90;83.20;;;;;;5035650;28;20025;-63
2022/05/29 01:25:23;;;;;;;4.13;0.90;;;10.90;83.40;;;;;;5032234;28;20540;-63
2022/05/29 01:28:01;;;;;;;3.03;0.65;;;10.90;83.60;;;;;;5045230;28;20052;-62
2022/05/29 01:30:31;;;;;;;3.80;0.95;;;10.90;83.60;;;;;;5040039;28;20029;-63
2022/05/29 01:33:21;;;;;;;3.00;1.00;;;10.90;83.80;;;;;;5033451;28;20056;-63
2022/05/29 01:35:54;;;;;;;1.75;0.70;;;10.90;84.00;;;;;;5031879;28;20094;-63
2022/05/29 01:38:27;;;;;;;2.72;1.20;;;10.80;84.10;;;;;;5035578;28;20028;-63
2022/05/29 01:41:08;;;;;;;2.05;1.13;;;10.80;84.20;;;;;;5035019;28;20025;-63
2022/05/29 01:43:44;;;;;;;4.40;1.75;;;10.80;84.30;;;;;;5031851;28;20037;-63
2022/05/29 01:46:45;;;;;;;5.38;2.20;;;10.80;84.40;;;;;;5036504;28;20067;-63
2022/05/29 01:49:20;;;;;;;4.18;1.95;;;10.80;84.60;;;;;;5027126;28;20108;-63
2022/05/29 01:52:00;;;;;;;4.20;2.00;;;10.80;84.70;;;;;;5023959;28;20555;-63
2022/05/29 01:54:43;;;;;;;6.65;2.20;;;10.80;84.70;;;;;;5036481;28;20110;-63
2022/05/29 01:57:16;;;;;;;4.45;2.22;;;10.80;84.80;;;;;;5036586;28;20040;-63
2022/05/29 01:59:59;;;;;;;6.10;2.17;;;10.80;85.10;;;;;;5029008;28;20029;-63
2022/05/29 02:02:34;;;;;;;3.72;2.00;;;10.70;85.30;;;;;;5031846;28;20025;-63
2022/05/29 02:05:05;;;;;;;4.72;1.95;;;10.80;85.50;;;;;;5031504;28;20033;-63
2022/05/29 02:07:48;;;;;;;4.95;2.63;;;10.70;85.50;;;;;;5037327;28;20056;-62
2022/05/29 02:10:17;;;;;;;5.03;2.00;;;10.70;85.60;;;;;;5027655;28;20018;-63
2022/05/29 02:12:53;;;;;;;4.43;1.92;;;10.70;85.70;;;;;;5034648;28;20040;-62
2022/05/29 02:15:28;;;;;;;4.97;2.00;;;10.70;85.90;;;;;;5032578;28;20503;-63
2022/05/29 02:17:57;;;;;;;5.68;1.80;;;10.70;86.00;;;;;;5031801;28;20067;-63
2022/05/29 02:20:32;;;;;;;3.22;1.45;;;10.70;86.20;;;;;;5037576;28;20026;-63
2022/05/29 02:23:07;;;;;;;5.93;1.70;;;10.70;86.20;;;;;;5037536;28;20026;-63
2022/05/29 02:25:36;;;;;;;3.80;1.70;;;10.70;86.30;;;;;;5034420;28;20556;-63
2022/05/29 02:28:08;;;;;;;4.20;1.50;;;10.70;86.40;;;;;;5032397;28;20048;-62
2022/05/29 02:30:56;;;;;;;4.18;1.48;;;10.70;86.50;;;;;;5032155;28;20026;-63
2022/05/29 02:33:31;;;;;;;5.40;1.65;;;10.70;86.60;;;;;;5036421;28;20032;-63
2022/05/29 02:36:24;;;;;;;5.20;1.67;;;10.70;86.70;;;;;;5037924;28;20064;-63
2022/05/29 02:39:00;;;;;;;3.40;1.50;;;10.60;86.80;;;;;;5029419;28;20040;-63
2022/05/29 02:41:56;;;;;;;5.38;1.48;;;10.60;86.90;;;;;;5037551;28;20025;-63
2022/05/29 02:44:38;;;;;;;5.28;1.77;;;10.60;87.00;;;;;;5032986;28;20218;-63
2022/05/29 02:47:20;;;;;;;4.38;1.67;;;10.60;87.20;;;;;;5033766;28;20469;-63
2022/05/29 02:50:02;;;;;;;3.75;1.30;;;10.60;87.30;;;;;;5038262;28;20047;-63
2022/05/29 02:52:28;;;;;;;4.35;2.03;;;10.60;87.50;;;;;;5033349;28;20049;-63
2022/05/29 02:54:55;;;;;;;2.38;1.63;;;10.60;87.70;;;;;;5032436;28;20030;-63
2022/05/29 02:57:20;;;;;;;3.63;1.75;;;10.60;87.70;;;;;;5034395;28;20017;-63
2022/05/29 02:59:50;;;;;;;4.85;1.83;;;10.60;87.80;;;;;;5034744;28;20132;-62
2022/05/29 03:02:35;;;;;;;3.22;1.38;;;10.60;88.00;;;;;;5033865;28;20025;-63
2022/05/29 03:05:13;;;;;;;3.35;1.40;;;10.60;88.20;;;;;;5032847;28;20017;-62
2022/05/29 03:08:16;;;;;;;2.00;1.13;;;10.60;88.40;;;;;;5041069;28;20017;-62
2022/05/29 03:10:55;;;;;;;4.53;1.60;;;10.60;88.60;;;;;;5031041;28;20017;-63
2022/05/29 03:13:26;;;;;;;3.72;1.20;;;10.60;88.90;;;;;;5031094;28;20576;-63
2022/05/29 03:16:07;;;;;;;5.97;1.25;;;10.50;89.00;;;;;;5035447;28;20060;-63
2022/05/29 03:18:50;;;;;;;3.38;1.30;;;10.60;89.10;;;;;;5030842;28;20477;-63
2022/05/29 03:21:25;;;;;;;2.78;1.02;;;10.60;89.30;;;;;;5031988;28;20025;-63
2022/05/29 03:24:12;;;;;;;6.93;1.95;;;10.60;89.40;;;;;;5041217;28;20037;-63
2022/05/29 03:26:47;;;;;;;3.20;1.15;;;10.60;89.60;;;;;;5037281;28;20476;-63
2022/05/29 03:29:37;;;;;;;4.07;1.25;;;10.60;89.90;;;;;;5037790;28;20028;-63
2022/05/29 03:32:04;;;;;;;5.22;1.13;;;10.60;90.00;;;;;;5040900;28;20393;-62
2022/05/29 03:34:30;;;;;;;2.33;0.90;;;10.60;90.00;;;;;;5032882;28;20560;-62
2022/05/29 03:36:55;;;;;;;3.88;1.15;;;10.60;90.10;;;;;;5035549;28;20086;-63
2022/05/29 03:39:21;;;;;;;4.40;1.05;;;10.60;90.20;;;;;;5039571;28;20059;-63
2022/05/29 03:41:48;;;;;;;2.13;1.00;;;10.60;90.20;;;;;;5039561;28;20393;-63
2022/05/29 03:44:17;;;;;;;6.50;1.50;;;10.60;90.40;;;;;;5036995;28;20424;-62
2022/05/29 03:46:44;;;;;;;6.55;1.90;;;10.60;90.50;;;;;;5038328;28;20227;-63
2022/05/29 03:49:15;;;;;;;7.13;1.70;;;10.60;90.80;;;;;;5039777;28;20021;-63
2022/05/29 03:51:41;;;;;;;4.40;1.50;;;10.60;91.00;;;;;;5033476;28;20068;-62
2022/05/29 03:54:07;;;;;;;4.00;1.45;;;10.60;91.20;;;;;;5038020;28;20413;-63
2022/05/29 03:56:33;;;;;;;4.10;1.92;;;10.60;91.30;;;;;;5034938;28;20033;-63
2022/05/29 03:58:59;;;;;;;3.33;1.63;;;10.60;91.40;;;;;;5055882;28;20075;-63
2022/05/29 04:01:25;;;;;;;3.85;1.33;;;10.60;91.60;;;;;;5035781;28;20421;-63
2022/05/29 04:03:54;;;;;;;8.30;1.92;;;10.50;91.70;;;;;;5035122;28;20037;-63
2022/05/29 04:06:25;;;;;;;6.77;1.83;;;10.60;92.10;;;;;;5037061;28;20017;-63
2022/05/29 04:14:21;;;;;;;4.30;1.33;;;10.50;92.50;;;;;;5038967;28;20036;-63
2022/05/29 04:16:47;;;;;;;6.22;1.38;;;10.50;92.50;;;;;;5035362;28;20396;-63
2022/05/29 04:19:13;;;;;;;2.53;1.20;;;10.50;92.70;;;;;;5033826;28;20033;-62
2022/05/29 04:21:38;;;;;;;3.30;1.10;;;10.50;92.70;;;;;;5034167;28;20017;-62
2022/05/29 04:24:04;;;;;;;1.83;0.60;;;10.60;92.80;;;;;;5038809;28;20493;-63
2022/05/29 04:26:30;;;;;;;1.95;1.13;;;10.60;92.80;;;;;;5036057;28;20036;-63
2022/05/29 04:28:55;;;;;;;3.20;1.20;;;10.60;92.90;;;;;;5043505;28;20033;-63
2022/05/29 04:31:21;;;;;;;4.32;0.88;;;10.60;93.00;;;;;;5035294;28;20477;-63
2022/05/29 04:33:46;;;;;;;5.88;1.17;;;10.60;93.10;;;;;;5037336;28;20105;-62
2022/05/29 04:36:12;;;;;;;4.15;1.05;;;10.50;93.20;;;;;;5042360;28;20087;-62
2022/05/29 04:38:38;;;;;;;2.72;1.50;;;10.60;93.40;;;;;;5038893;28;20025;-62
2022/05/29 04:41:08;;;;;;;3.30;1.17;;;10.50;93.50;;;;;;5036342;28;20026;-62
2022/05/29 04:43:34;;;;;;;4.28;1.40;;;10.60;93.70;;;;;;5035709;28;20024;-62
2022/05/29 04:46:00;;;;;;;5.00;1.13;;;10.60;93.80;;;;;;5034536;28;20052;-62
2022/05/29 04:48:25;;;;;;;2.53;0.95;;;10.60;93.80;;;;;;5038086;28;20061;-62
2022/05/29 04:50:59;;;;;;;2.92;0.75;;;10.60;93.90;;;;;;5040457;28;20613;-62
2022/05/29 04:53:26;;;;;;;2.38;0.90;;;10.60;94.00;;;;;;5036614;28;20095;-62
2022/05/29 04:55:56;;;;;;;5.07;1.35;;;10.60;94.00;;;;;;5037980;28;20064;-62
2022/05/29 04:58:24;;;;;;;3.75;0.88;;;10.70;94.10;;;;;;5037402;28;20028;-62
2022/05/29 05:00:54;;;;;;;2.47;0.60;;;10.60;94.10;;;;;;5037182;28;20099;-62
2022/05/29 05:03:20;;;;;;;2.53;0.82;;;10.70;94.10;;;;;;5046077;28;20021;-62
2022/05/29 05:05:46;;;;;;;1.05;0.60;;;10.70;94.10;;;;;;5038569;28;20026;-62
2022/05/29 05:08:12;;;;;;;2.17;0.60;;;10.70;94.10;;;;;;5039604;28;20070;-62
2022/05/29 05:10:40;;;;;;;1.00;0.50;;;10.70;94.10;;;;;;5038480;28;20429;-62
2022/05/29 05:13:06;;;;;;;1.20;0.40;;;10.70;94.10;;;;;;5053461;28;20120;-62
2022/05/29 05:15:32;;;;;;;2.38;0.45;;;10.80;94.20;;;;;;5044112;28;20053;-62
2022/05/29 05:17:57;;;;;;;1.48;0.40;;;10.80;94.20;;;;;;5037820;28;20062;-62
2022/05/29 05:20:23;;;;;;;1.27;0.45;;;10.80;94.10;;;;;;5045126;28;20542;-62
2022/05/29 05:22:51;;;;;;;1.30;0.55;;;10.80;94.20;;;;;;5040001;28;20021;-62
2022/05/29 05:25:17;;;;;;;1.02;0.40;;;10.80;94.20;;;;;;5044319;28;20036;-62
2022/05/29 05:27:42;;;;;;;3.50;0.50;;;10.90;94.20;;;;;;5039227;28;20029;-62
2022/05/29 05:30:09;;;;;;;1.13;0.73;;;10.90;94.20;;;;;;5037246;28;20053;-62
2022/05/29 05:32:34;;;;;;;1.65;0.57;;;10.80;94.20;;;;;;5044214;28;20026;-62
2022/05/29 05:35:03;;;;;;;3.92;0.73;;;10.90;94.30;;;;;;5032088;28;20658;-62
2022/05/29 05:37:29;;;;;;;3.17;0.98;;;10.90;94.30;;;;;;5049231;28;20461;-62
2022/05/29 05:39:55;;;;;;;2.15;0.95;;;10.90;94.40;;;;;;5048920;28;20496;-62
2022/05/29 05:42:20;;;;;;;1.90;1.08;;;10.90;94.40;;;;;;5048439;28;20024;-62
2022/05/29 05:44:48;;;;;;;4.20;1.45;;;10.90;94.50;;;;;;5046185;28;20036;-62
2022/05/29 05:47:13;;;;;;;3.90;1.08;;;10.90;94.50;;;;;;5034966;28;20104;-62
2022/05/29 05:49:39;;;;;;;3.50;0.80;;;10.90;94.60;;;;;;5040331;28;20105;-62
2022/05/29 05:52:05;;;;;;;3.20;0.90;;;10.90;94.60;;;;;;5050822;28;20060;-62
2022/05/29 05:54:32;;;;;;;3.13;0.90;;;11.00;94.70;;;;;;5040565;28;20029;-62
2022/05/29 05:56:57;;;;;;;3.13;1.65;;;11.00;94.70;;;;;;5032470;28;20030;-62
2022/05/29 05:59:23;;;;;;;1.80;0.60;;;11.10;94.80;;;;;;5032785;28;20554;-62
2022/05/29 06:01:48;;;;;;;1.35;0.50;;;11.10;94.70;;;;;;5047233;28;20392;-62
2022/05/29 06:04:14;;;;;;;2.03;0.63;;;11.10;94.70;;;;;;5044462;28;20481;-62
2022/05/29 06:06:39;;;;;;;2.53;0.75;;;11.10;94.70;;;;;;5025199;28;20017;-62
2022/05/29 06:09:05;;;;;;;1.17;0.80;;;11.10;94.70;;;;;;5050434;28;20553;-62
2022/05/29 06:11:31;;;;;;;3.25;0.93;;;11.10;94.70;;;;;;5045857;28;20036;-62
2022/05/29 06:13:56;;;;;;;2.65;0.90;;;11.10;94.70;;;;;;5035010;28;20029;-62
2022/05/29 06:16:22;;;;;;;1.85;0.60;;;11.10;94.70;;;;;;5037517;28;20385;-62
2022/05/29 06:18:48;;;;;;;1.40;0.50;;;11.10;94.70;;;;;;5042364;28;20022;-62
2022/05/29 06:21:14;;;;;;;3.13;0.73;;;11.20;94.80;;;;;;5039554;28;20358;-63
2022/05/29 06:23:40;;;;;;;1.15;0.60;;;11.20;94.80;;;;;;5031321;28;20017;-62
2022/05/29 06:26:08;;;;;;;3.78;0.88;;;11.20;94.80;;;;;;5035061;28;20075;-62
2022/05/29 06:28:34;;;;;;;1.55;0.52;;;11.30;94.80;;;;;;5032666;28;20067;-62
2022/05/29 06:31:02;;;;;;;2.17;0.70;;;11.30;94.80;;;;;;5038881;28;20025;-62
2022/05/29 06:33:29;;;;;;;4.65;1.00;;;11.30;94.80;;;;;;5031846;28;20030;-62
2022/05/29 06:36:05;;;;;;;1.98;0.60;;;11.40;94.90;;;;;;5039922;28;20025;-62
2022/05/29 06:38:30;;;;;;;2.90;0.80;;;11.40;94.90;;;;;;5040322;28;20025;-62
2022/05/29 06:40:56;;;;;;;2.65;1.10;;;11.50;94.80;;;;;;5051268;28;20032;-62
2022/05/29 06:43:21;;;;;;;3.63;0.70;;;11.50;94.80;;;;;;5047393;28;20160;-62
2022/05/29 06:45:47;;;;;;;1.77;0.80;;;11.60;94.80;;;;;;5046346;28;20028;-63
2022/05/29 06:48:12;;;;;;;3.42;0.80;;;11.70;94.80;;;;;;5046979;28;20061;-62
2022/05/29 06:50:38;;;;;;;3.53;1.10;;;11.70;94.80;;;;;;5044657;28;20017;-62
2022/05/29 06:53:03;;;;;;;4.53;1.25;;;11.80;94.90;;;;;;5043758;28;20423;-62
2022/05/29 06:55:29;;;;;;;2.88;1.33;;;11.90;95.00;;;;;;5046131;28;20492;-62
2022/05/29 06:57:54;;;;;;;2.90;1.45;;;12.00;94.90;;;;;;5049960;28;20444;-62
2022/05/29 07:08:40;;;;;;;1.40;0.90;;;12.30;94.70;;;;;;5053928;28;20032;-62
2022/05/29 07:11:08;;;;;;;4.57;1.13;;;12.40;94.60;;;;;;5050257;28;20033;-62
2022/05/29 07:13:34;;;;;;;1.48;0.60;;;12.60;94.80;;;;;;5046166;28;20082;-63
2022/05/29 07:16:01;;;;;;;2.70;0.75;;;12.60;94.30;;;;;;5038777;28;20028;-62
2022/05/29 07:18:26;;;;;;;0.98;0.50;;;12.70;94.20;;;;;;5037770;28;20018;-62
2022/05/29 07:20:52;;;;;;;1.75;0.50;;;12.70;94.10;;;;;;5046802;28;20028;-62
2022/05/29 07:23:18;;;;;;;1.63;0.60;;;12.80;94.00;;;;;;5046742;28;20062;-62
2022/05/29 07:25:43;;;;;;;2.35;0.50;;;12.90;93.80;;;;;;5045540;28;20053;-62
2022/05/29 07:28:09;;;;;;;1.65;0.50;;;12.90;93.70;;;;;;5047386;28;20144;-62
2022/05/29 07:30:35;;;;;;;1.02;0.40;;;12.90;93.70;;;;;;5046054;28;20017;-62
2022/05/29 07:33:01;;;;;;;1.25;0.47;;;12.80;93.70;;;;;;5035422;28;20029;-62
2022/05/29 07:35:27;;;;;;;1.48;0.40;;;12.80;93.70;;;;;;5036535;28;20029;-63
2022/05/29 07:37:53;;;;;;;2.53;0.57;;;12.80;93.70;;;;;;5036012;28;20029;-63
2022/05/29 07:40:19;;;;;;;1.92;0.50;;;12.80;93.70;;;;;;5047145;28;20051;-63
2022/05/29 07:45:28;;;;;;;2.15;0.60;;;12.80;93.70;;;;;;5042068;28;20102;-63
2022/05/29 07:47:55;;;;;;;2.00;0.57;;;12.80;93.70;;;;;;5034725;28;20473;-63
2022/05/29 07:50:22;;;;;;;1.45;0.68;;;12.70;93.80;;;;;;5036584;28;20033;-63
2022/05/29 07:52:50;;;;;;;2.15;0.50;;;12.70;93.90;;;;;;5054680;28;20041;-62
2022/05/29 07:55:17;;;;;;;2.95;0.57;;;12.60;94.00;;;;;;5036264;28;20014;-62
2022/05/29 07:57:42;;;;;;;1.20;0.60;;;12.70;94.00;;;;;;5040439;28;20033;-63
2022/05/29 08:00:10;;;;;;;1.35;0.55;;;12.70;94.00;;;;;;5031154;28;20032;-63
2022/05/29 08:02:36;;;;;;;1.50;0.50;;;12.80;94.00;;;;;;5040714;28;20033;-63
2022/05/29 08:05:07;;;;;;;1.27;0.50;;;12.90;93.90;;;;;;5045361;28;20105;-63
2022/05/29 08:07:32;;;;;;;1.55;0.50;;;13.00;93.80;;;;;;5037476;28;20018;-63
2022/05/29 08:09:58;;;;;;;1.63;0.50;;;13.10;93.80;;;;;;5041973;28;20021;-64
2022/05/29 08:12:24;;;;;;;2.25;0.60;;;13.20;93.70;;;;;;5049671;28;20099;-65
2022/05/29 08:14:50;;;;;;;2.17;0.50;;;13.30;93.60;;;;;;5044252;28;20059;-65
2022/05/29 08:17:16;;;;;;;2.08;0.45;;;13.40;93.50;;;;;;5050107;28;20032;-65
2022/05/29 08:19:41;;;;;;;1.02;0.50;;;13.60;93.50;;;;;;5050195;28;20018;-64
2022/05/29 08:22:07;;;;;;;1.80;0.50;;;13.70;93.40;;;;;;5053374;28;20032;-65
2022/05/29 08:30:43;;;;;;;1.70;0.63;;;14.20;93.00;;;;;;5046891;28;20487;-63
2022/05/29 08:33:20;;;;;;;3.30;0.70;;;14.30;92.80;;;;;;5049375;28;20018;-63
2022/05/29 08:35:48;;;;;;;3.28;0.60;;;14.40;92.60;;;;;;5048542;28;20017;-63
2022/05/29 08:38:15;;;;;;;1.38;0.50;;;14.40;92.50;;;;;;5050567;28;20361;-62
2022/05/29 08:40:45;;;;;;;3.17;0.70;;;14.40;92.40;;;;;;5049204;28;20080;-63
2022/05/29 08:43:32;;;;;;;2.38;0.70;;;14.40;92.40;;;;;;5043164;28;20087;-63
2022/05/29 08:46:04;;;;;;;2.25;0.60;;;14.40;92.50;;;;;;5047860;28;20029;-63
2022/05/29 08:48:30;;;;;;;1.67;0.70;;;14.40;92.50;;;;;;5053118;28;20029;-62
2022/05/29 08:51:27;;;;;;;2.17;0.60;;;14.50;92.40;;;;;;5052615;28;20047;-63
2022/05/29 08:54:02;;;;;;;2.45;0.63;;;14.70;92.30;;;;;;5059477;28;20060;-62
2022/05/29 08:56:35;;;;;;;3.15;0.73;;;14.90;92.20;;;;;;5056722;28;20020;-63
2022/05/29 08:59:21;;;;;;;3.53;0.77;;;15.00;92.00;;;;;;5055905;28;20029;-63
2022/05/29 09:02:00;;;;;;;3.25;0.77;;;15.20;91.80;;;;;;5041112;28;20036;-63
2022/05/29 09:04:31;;;;;;;1.45;0.70;;;15.30;91.50;;;;;;5048221;28;20025;-63
2022/05/29 09:06:59;;;;;;;2.83;0.88;;;15.30;91.10;;;;;;5051395;28;20033;-63
2022/05/29 09:09:34;;;;;;;4.00;1.17;;;15.20;91.00;;;;;;5052440;28;20021;-63
2022/05/29 09:12:04;;;;;;;3.20;1.83;;;15.10;91.00;;;;;;5040673;28;20129;-63
2022/05/29 09:14:50;;;;;;;2.40;0.70;;;15.00;90.80;;;;;;5041051;28;20078;-63
2022/05/29 09:17:29;;;;;;;4.10;0.73;;;14.90;90.80;;;;;;5050195;28;20069;-63
2022/05/29 09:20:00;;;;;;;3.28;0.80;;;15.10;90.90;;;;;;5053063;28;20020;-63
2022/05/29 09:22:34;;;;;;;1.45;0.60;;;15.10;90.70;;;;;;5046213;28;20112;-63
2022/05/29 09:25:12;;;;;;;4.70;1.25;;;15.30;90.60;;;;;;5038383;28;20032;-63
2022/05/29 09:27:44;;;;;;;5.05;0.93;;;15.50;90.20;;;;;;5037912;28;20024;-63
2022/05/29 09:30:10;;;;;;;1.33;0.50;;;15.60;89.90;;;;;;5048026;28;20835;-63
2022/05/29 09:32:56;;;;;;;3.38;1.27;;;15.70;89.50;;;;;;5037466;28;20092;-63
2022/05/29 09:35:40;;;;;;;4.57;1.02;;;15.80;88.90;;;;;;5050055;28;20028;-63
2022/05/29 09:38:10;;;;;;;2.90;0.60;;;15.90;87.90;;;;;;5041133;28;20493;-63
2022/05/29 09:40:52;;;;;;;2.55;0.60;;;15.90;87.00;;;;;;5045460;28;20064;-63
2022/05/29 09:43:23;;;;;;;2.70;0.60;;;15.80;86.40;;;;;;5052180;28;20523;-63
2022/05/29 09:45:49;;;;;;;1.60;0.40;;;15.70;86.10;;;;;;5042118;28;20104;-65
2022/05/29 09:51:31;;;;;;;0.60;0.32;;;15.30;85.00;;;;;;5046832;28;20043;-64
2022/05/29 09:54:01;;;;;;;1.02;0.28;;;15.00;85.30;;;;;;5047215;28;20017;-64
2022/05/29 09:56:30;;;;;;;1.55;0.20;;;14.90;86.00;;;;;;5042620;28;20108;-65
2022/05/29 09:58:59;;;;;;;1.23;0.20;;;14.90;86.30;;;;;;5044331;28;20485;-64
2022/05/29 10:01:33;;;;;;;0.73;0.15;;;14.90;86.60;;;;;;5060410;28;20119;-64
2022/05/29 10:04:04;;;;;;;0.45;0.20;;;15.00;86.60;;;;;;5049470;28;20035;-65
2022/05/29 10:06:34;;;;;;;0.45;0.15;;;15.00;86.60;;;;;;5040820;28;20454;-65
2022/05/29 10:09:23;;;;;;;;;;;15.00;86.60;;;;;;5047904;28;20029;-65
2022/05/29 10:11:59;;;;;;;1.65;0.52;;;15.00;86.60;;;;;;5053581;28;19905;-64
2022/05/29 10:14:33;;;;;;;1.13;0.25;;;15.10;86.70;;;;;;5057016;28;20052;-64
2022/05/29 10:16:58;;;;;;;2.72;0.20;;;15.20;86.70;;;;;;5031772;28;20065;-64
2022/05/29 10:19:34;;;;;;;1.35;0.30;;;15.30;86.40;;;;;;5041566;28;20056;-64
2022/05/29 10:22:03;;;;;;;0.77;0.22;;;15.50;85.90;;;;;;5043665;28;20056;-65
2022/05/29 10:24:37;;;;;;;1.23;0.30;;;15.60;85.80;;;;;;5047924;28;20791;-64
2022/05/29 10:27:07;;;;;;;0.65;0.20;;;15.80;85.50;;;;;;5039615;28;20348;-65
2022/05/29 10:29:36;;;;;;;0.95;0.20;;;15.90;85.20;;;;;;5045545;28;20446;-64
2022/05/29 10:32:06;;;;;;;0.50;0.20;;;16.10;84.80;;;;;;5039577;28;20039;-65
2022/05/29 10:34:36;;;;;;;1.20;0.30;;;16.20;84.70;;;;;;5047194;28;20476;-64
2022/05/29 10:37:38;;;;;;;1.45;0.43;;;16.40;84.30;;;;;;5046197;28;20033;-65
2022/05/29 10:40:21;;;;;;;1.23;0.20;;;16.50;83.60;;;;;;5046489;28;20032;-64
2022/05/29 10:42:50;;;;;;;0.93;0.20;;;16.80;83.10;;;;;;5040936;28;20083;-65
2022/05/29 10:45:44;;;;;;;1.48;0.20;;;17.10;82.30;;;;;;5053808;28;20014;-64
2022/05/29 10:48:18;;;;;;;1.83;0.43;;;17.40;80.80;;;;;;5038462;28;20056;-64
2022/05/29 10:51:17;;;;;;;0.90;0.20;;;17.30;79.30;;;;;;5038840;28;20033;-65
2022/05/29 10:54:13;;;;;;;1.05;0.30;;;16.90;79.80;;;;;;5042963;28;20038;-65
2022/05/29 10:56:50;;;;;;;2.38;0.40;;;16.50;80.90;;;;;;5043895;28;20037;-65
2022/05/29 10:59:50;;;;;;;3.38;0.70;;;16.20;82.00;;;;;;5043428;28;20030;-65
2022/05/29 11:05:49;;;;;;;2.22;0.40;;;15.70;83.80;;;;;;5047481;28;20035;-65
2022/05/29 11:08:22;;;;;;;2.50;0.50;;;15.40;85.00;;;;;;5037210;28;20017;-65
2022/05/29 11:11:14;;;;;;;1.20;0.50;;;15.40;85.50;;;;;;5050999;28;20021;-65
2022/05/29 11:14:24;;;;;;;2.20;0.40;;;15.50;85.60;;;;;;5046966;28;20397;-65
2022/05/29 11:17:21;;;;;;;1.17;0.30;;;15.60;85.60;;;;;;5037700;28;20028;-65
2022/05/29 11:19:47;;;;;;;2.20;0.40;;;15.80;85.80;;;;;;5033629;28;20017;-65
2022/05/29 11:22:56;;;;;;;2.33;0.50;;;15.90;85.70;;;;;;5041231;28;20017;-65
2022/05/29 11:25:56;;;;;;;1.60;0.40;;;16.10;85.70;;;;;;5041230;28;20606;-64
2022/05/29 11:28:41;;;;;;;2.83;0.50;;;16.30;85.80;;;;;;5039879;28;20452;-65
2022/05/29 11:31:14;;;;;;;1.77;0.40;;;16.50;85.20;;;;;;5040556;28;20017;-65
2022/05/29 11:34:07;;;;;;;4.47;0.40;;;16.50;85.10;;;;;;5035263;28;20041;-65
2022/05/29 11:36:46;;;;;;;3.03;0.50;;;16.50;84.70;;;;;;5039845;28;20029;-65
2022/05/29 11:39:22;;;;;;;2.47;0.60;;;16.30;83.10;;;;;;5041290;28;20021;-65
2022/05/29 11:42:13;;;;;;;4.00;0.45;;;15.90;82.90;;;;;;5037104;28;20026;-65
2022/05/29 11:45:00;;;;;;;3.17;0.70;;;15.50;83.00;;;;;;5050201;28;20028;-65
2022/05/29 11:53:25;;;;;;;2.13;0.30;;;15.40;84.50;;;;;;5061741;28;20160;-65
2022/05/29 11:55:54;;;;;;;2.05;0.50;;;15.50;84.70;;;;;;5052292;28;20104;-65
2022/05/29 11:58:31;;;;;;;2.72;0.60;;;15.70;84.60;;;;;;5047721;28;20468;-65
2022/05/29 12:01:04;;;;;;;1.65;0.38;;;15.80;84.00;;;;;;5039705;28;20033;-65
2022/05/29 12:03:43;;;;;;;1.63;0.38;;;16.10;82.90;;;;;;5049365;28;20033;-65
2022/05/29 12:06:33;;;;;;;3.03;0.40;;;16.30;81.90;;;;;;5053627;28;20023;-65
2022/05/29 12:09:03;;;;;;;2.17;0.40;;;16.60;81.40;;;;;;5041030;28;20037;-65
2022/05/29 12:11:47;;;;;;;3.20;0.43;;;16.90;80.70;;;;;;5048947;28;20405;-65
2022/05/29 12:14:21;;;;;;;2.08;0.32;;;17.10;78.70;;;;;;5050977;28;20027;-65
2022/05/29 12:16:51;;;;;;;2.90;0.50;;;17.30;77.70;;;;;;5045094;28;20393;-65
2022/05/29 12:19:19;;;;;;;;;;;17.30;76.90;;;;;;5048853;28;20027;-65
2022/05/29 12:21:57;;;;;;;1.77;0.40;;;17.20;76.40;;;;;;5045485;28;19912;-65
2022/05/29 12:24:26;;;;;;;1.65;0.50;;;17.40;76.80;;;;;;5050623;28;20017;-65
2022/05/29 12:27:13;;;;;;;5.30;0.65;;;17.50;76.60;;;;;;5043224;28;20537;-65
2022/05/29 12:29:57;;;;;;;6.70;0.60;;;17.60;75.00;;;;;;5046353;28;20481;-65
2022/05/29 12:32:26;;;;;;;1.55;0.43;;;17.50;74.50;;;;;;5046500;28;20055;-65
2022/05/29 12:34:56;;;;;;;1.93;0.50;;;17.60;74.60;;;;;;5047221;28;20524;-65
2022/05/29 12:37:52;;;;;;;4.50;0.63;;;17.90;74.10;;;;;;5048275;28;21767;-63
2022/05/29 12:40:27;;;;;;;4.43;0.50;;;18.00;72.30;;;;;;5042076;28;20102;-64
2022/05/29 12:43:01;;;;;;;1.55;0.40;;;17.90;70.60;;;;;;5034546;28;20436;-64
2022/05/29 12:45:51;;;;;;;2.08;0.32;;;17.80;71.80;;;;;;5046997;28;20421;-64
2022/05/29 12:48:22;;;;;;;2.75;0.60;;;18.00;72.60;;;;;;5052607;28;20024;-65
2022/05/29 12:51:05;;;;;;;2.20;0.38;;;18.30;72.00;;;;;;5052303;28;20045;-65
2022/05/29 12:53:37;;;;;;;1.02;0.40;;;18.70;71.50;;;;;;5048518;28;20144;-64
2022/05/29 12:56:14;;;;;;;3.15;0.40;;;18.90;71.10;;;;;;5048849;28;20574;-64
2022/05/29 12:59:14;;;;;;;2.10;0.40;;;18.90;70.30;;;;;;5037601;28;20018;-65
2022/05/29 13:02:00;;;;;;;1.83;0.30;;;18.80;69.80;;;;;;5044860;28;20013;-64
2022/05/29 13:04:53;;;;;;;1.25;0.30;;;18.90;69.60;;;;;;5033250;28;20051;-65
2022/05/29 13:07:21;;;;;;;3.25;0.40;;;18.90;69.70;;;;;;5051890;28;20053;-64
2022/05/29 13:10:12;;;;;;;1.55;0.30;;;19.00;68.70;;;;;;5049718;28;20025;-64
2022/05/29 13:12:52;;;;;;;1.30;0.30;;;19.00;68.10;;;;;;5034165;28;20021;-64
2022/05/29 13:15:32;;;;;;;1.70;0.45;;;19.30;67.90;;;;;;5033850;28;20075;-64
2022/05/29 13:21:17;;;;;;;2.33;0.40;;;19.90;65.10;;;;;;5033317;28;20125;-65
2022/05/29 13:23:53;;;;;;;1.20;0.32;;;20.00;63.80;;;;;;5033981;28;20032;-64
2022/05/29 13:26:25;;;;;;;3.28;0.30;;;20.00;63.60;;;;;;5045719;28;20021;-65
2022/05/29 13:29:00;;;;;;;2.10;0.30;;;19.80;62.70;;;;;;5052163;28;20029;-64
2022/05/29 13:31:31;;;;;;;2.00;0.40;;;19.60;63.40;;;;;;5040770;28;20150;-65
2022/05/29 13:34:18;;;;;;;1.55;0.50;;;19.40;63.40;;;;;;5043282;28;20401;-64
2022/05/29 13:36:53;;;;;;;2.13;0.30;;;19.30;63.70;;;;;;5041287;28;20033;-64
2022/05/29 13:39:33;;;;;;;4.15;0.40;;;19.20;62.80;;;;;;5043108;28;20028;-65
2022/05/29 13:42:03;;;;;;;;;;;19.20;62.30;;;;;;5046478;28;20109;-64
2022/05/29 13:44:35;;;;;;;1.50;0.40;;;19.30;62.20;;;;;;5045809;28;19917;-65
2022/05/29 13:47:20;;;;;;;0.88;0.30;;;19.40;62.00;;;;;;5045146;28;20025;-64
2022/05/29 13:49:58;;;;;;;2.17;0.40;;;19.70;61.20;;;;;;5035316;28;20033;-64
2022/05/29 13:52:29;;;;;;;0.80;0.25;;;20.00;61.30;;;;;;5055663;28;20076;-65
2022/05/29 13:55:09;;;;;;;2.58;0.40;;;20.30;60.50;;;;;;5038949;28;20500;-65
2022/05/29 14:06:24;;;;;;;1.63;0.40;;;20.70;58.00;;;;;;5039823;28;20074;-65